Time;durP1;ratioP1;P1;durP2;ratioP2;P2;SDS_P1;SDS_P2;PMS_P1;PMS_P2;Temp;Humidity;BMP_temperature;BMP_pressure;BME280_temperature;BME280_humidity;BME280_pressure;Samples;Min_cycle;Max_cycle;Signal;HPM_P1;HPM_P2
2023/05/20 00:00:06;;;;;;;0.80;0.80;;;;;;;15.90;100.00;99642.34;5050826;28;20196;-62
2023/05/20 00:02:33;;;;;;;0.40;0.40;;;;;;;15.90;100.00;99644.91;5052275;28;20192;-62
2023/05/20 00:05:00;;;;;;;0.40;0.40;;;;;;;15.91;100.00;99644.03;5052321;28;20231;-62
2023/05/20 00:07:27;;;;;;;0.47;0.47;;;;;;;15.96;100.00;99647.25;5052561;28;20228;-61
2023/05/20 00:09:53;;;;;;;0.50;0.50;;;;;;;16.01;100.00;99634.91;5051895;28;20266;-61
2023/05/20 00:12:22;;;;;;;0.60;0.60;;;;;;;15.96;100.00;99637.72;5052430;28;20201;-61
2023/05/20 00:14:48;;;;;;;0.40;0.40;;;;;;;15.94;100.00;99636.13;5049245;28;20208;-63
2023/05/20 00:17:16;;;;;;;0.53;0.53;;;;;;;15.98;100.00;99637.66;5052305;28;20212;-62
2023/05/20 00:19:43;;;;;;;0.50;0.50;;;;;;;15.99;100.00;99634.16;5052036;28;20204;-62
2023/05/20 00:22:10;;;;;;;0.50;0.50;;;;;;;16.00;100.00;99633.22;5051945;28;20204;-61
2023/05/20 00:24:36;;;;;;;0.40;0.40;;;;;;;16.02;100.00;99641.78;5052023;28;20262;-62
2023/05/20 00:27:03;;;;;;;0.60;0.60;;;;;;;16.05;100.00;99636.44;5051958;28;20240;-62
2023/05/20 00:29:33;;;;;;;0.40;0.40;;;;;;;16.02;100.00;99634.00;5052300;28;20266;-61
2023/05/20 00:32:00;;;;;;;0.50;0.50;;;;;;;16.03;100.00;99635.66;5052083;28;20205;-62
2023/05/20 00:34:27;;;;;;;0.50;0.50;;;;;;;16.03;100.00;99628.75;5051173;28;20215;-61
2023/05/20 00:36:54;;;;;;;0.40;0.40;;;;;;;16.06;100.00;99632.94;5051301;28;20192;-61
2023/05/20 00:39:20;;;;;;;0.70;0.70;;;;;;;16.05;100.00;99636.44;5049014;28;20205;-62
2023/05/20 00:41:47;;;;;;;0.40;0.40;;;;;;;16.06;100.00;99640.69;5051306;28;20209;-61
2023/05/20 00:44:14;;;;;;;0.53;0.53;;;;;;;16.06;100.00;99641.53;5049733;28;20201;-63
2023/05/20 00:46:42;;;;;;;0.67;0.67;;;;;;;16.06;100.00;99643.28;5051142;28;20223;-61
2023/05/20 00:49:09;;;;;;;0.40;0.40;;;;;;;16.02;100.00;99641.78;5051520;28;20400;-61
2023/05/20 00:51:36;;;;;;;0.40;0.40;;;;;;;15.96;100.00;99636.91;5051046;28;20196;-62
2023/05/20 00:54:03;;;;;;;0.57;0.57;;;;;;;15.95;100.00;99635.22;5050174;28;20683;-62
2023/05/20 00:56:30;;;;;;;0.77;0.77;;;;;;;15.97;100.00;99630.78;5051129;28;20270;-62
2023/05/20 00:58:57;;;;;;;0.50;0.50;;;;;;;15.97;100.00;99628.22;5051603;28;20688;-61
2023/05/20 01:01:24;;;;;;;0.50;0.50;;;;;;;15.89;100.00;99614.84;5050941;28;20667;-62
2023/05/20 01:03:53;;;;;;;0.40;0.40;;;;;;;15.91;100.00;99613.84;5050937;28;20199;-61
2023/05/20 01:06:19;;;;;;;0.40;0.40;;;;;;;15.83;100.00;99610.81;5050915;28;20223;-62
2023/05/20 01:08:46;;;;;;;0.50;0.50;;;;;;;15.77;100.00;99610.25;5051342;28;20203;-62
2023/05/20 01:11:22;;;;;;;0.40;0.40;;;;;;;15.72;100.00;99608.72;5051096;28;20201;-62
2023/05/20 01:13:54;;;;;;;0.30;0.30;;;;;;;15.58;100.00;99585.28;5050707;28;20203;-62
2023/05/20 01:16:23;;;;;;;0.50;0.50;;;;;;;15.69;100.00;99601.13;5051072;28;20607;-61
2023/05/20 01:18:54;;;;;;;0.50;0.50;;;;;;;15.62;100.00;99597.16;5047363;28;20197;-61
2023/05/20 01:21:22;;;;;;;0.60;0.60;;;;;;;15.60;100.00;99604.16;5050770;28;20204;-61
2023/05/20 01:23:50;;;;;;;0.40;0.40;;;;;;;15.52;100.00;99601.06;5048797;28;20204;-61
2023/05/20 01:26:18;;;;;;;0.40;0.40;;;;;;;15.47;100.00;99610.75;5050454;28;20207;-61
2023/05/20 01:28:45;;;;;;;0.50;0.50;;;;;;;15.45;100.00;99607.41;5050437;28;20255;-62
2023/05/20 01:31:19;;;;;;;0.63;0.63;;;;;;;15.45;100.00;99617.72;5050353;28;20220;-62
2023/05/20 01:33:48;;;;;;;0.40;0.40;;;;;;;15.48;100.00;99617.63;5050618;28;20203;-61
2023/05/20 01:36:15;;;;;;;0.50;0.50;;;;;;;15.49;100.00;99610.72;5050773;28;20212;-61
2023/05/20 01:38:43;;;;;;;0.50;0.50;;;;;;;15.47;100.00;99615.94;5051029;28;20199;-62
2023/05/20 01:41:12;;;;;;;0.70;0.70;;;;;;;15.49;100.00;99616.72;5050048;28;20907;-62
2023/05/20 01:43:39;;;;;;;0.40;0.40;;;;;;;15.48;100.00;99609.88;5049678;28;20216;-61
2023/05/20 01:46:06;;;;;;;0.47;0.47;;;;;;;15.41;100.00;99605.84;5050218;28;20205;-62
2023/05/20 01:48:33;;;;;;;0.40;0.40;;;;;;;15.33;100.00;99605.38;5050211;28;20231;-61
2023/05/20 01:51:00;;;;;;;0.47;0.47;;;;;;;15.28;100.00;99602.19;5049803;28;20533;-61
2023/05/20 01:53:27;;;;;;;0.50;0.50;;;;;;;15.20;100.00;99599.09;5049881;28;20624;-61
2023/05/20 01:55:53;;;;;;;0.50;0.50;;;;;;;15.15;100.00;99595.91;5049831;28;20266;-61
2023/05/20 01:58:22;;;;;;;0.40;0.40;;;;;;;15.06;100.00;99586.81;5049086;28;20200;-62
2023/05/20 02:00:49;;;;;;;0.40;0.40;;;;;;;14.95;100.00;99581.31;5050271;28;20588;-62
2023/05/20 02:03:15;;;;;;;0.40;0.40;;;;;;;14.83;100.00;99583.63;5049972;28;20231;-61
2023/05/20 02:05:42;;;;;;;0.40;0.40;;;;;;;14.69;100.00;99592.81;5049772;28;20561;-61
2023/05/20 02:08:09;;;;;;;0.40;0.40;;;;;;;14.65;100.00;99591.25;5049772;28;20227;-62
2023/05/20 02:10:36;;;;;;;0.77;0.77;;;;;;;14.64;100.00;99592.16;5050101;28;20203;-61
2023/05/20 02:13:02;;;;;;;0.70;0.70;;;;;;;14.65;100.00;99587.81;5049975;28;20209;-61
2023/05/20 02:15:30;;;;;;;0.63;0.63;;;;;;;14.60;100.00;99582.84;5049898;28;20205;-62
2023/05/20 02:17:57;;;;;;;0.50;0.50;;;;;;;14.57;100.00;99583.00;5050120;28;20205;-61
2023/05/20 02:20:24;;;;;;;0.33;0.33;;;;;;;14.53;100.00;99576.31;5049769;28;20295;-62
2023/05/20 02:22:51;;;;;;;0.60;0.60;;;;;;;14.55;100.00;99579.66;5049474;28;20197;-61
2023/05/20 02:25:18;;;;;;;0.60;0.60;;;;;;;14.52;100.00;99572.03;5049774;28;20204;-61
2023/05/20 02:27:44;;;;;;;0.50;0.50;;;;;;;14.55;100.00;99573.66;5049100;28;20234;-62
2023/05/20 02:30:12;;;;;;;0.50;0.50;;;;;;;14.55;100.00;99584.81;5049756;28;20224;-62
2023/05/20 02:32:40;;;;;;;0.40;0.40;;;;;;;14.47;100.00;99571.41;5048907;28;20205;-61
2023/05/20 02:35:07;;;;;;;0.50;0.50;;;;;;;14.59;100.00;99586.38;5049298;28;20203;-62
2023/05/20 02:37:34;;;;;;;0.50;0.50;;;;;;;14.54;100.00;99569.41;5049703;28;20330;-62
2023/05/20 02:40:01;;;;;;;0.50;0.50;;;;;;;14.64;100.00;99583.56;5048542;28;20641;-62
2023/05/20 02:42:27;;;;;;;0.60;0.60;;;;;;;14.65;100.00;99580.94;5049610;28;20215;-62
2023/05/20 02:44:57;;;;;;;0.53;0.53;;;;;;;14.66;100.00;99572.28;5049945;28;20740;-61
2023/05/20 02:47:24;;;;;;;0.57;0.57;;;;;;;14.72;100.00;99578.91;5048260;28;20213;-61
2023/05/20 02:49:52;;;;;;;0.50;0.50;;;;;;;14.78;100.00;99575.22;5049414;28;20632;-61
2023/05/20 02:52:19;;;;;;;0.30;0.30;;;;;;;14.71;100.00;99572.91;5049453;28;20270;-62
2023/05/20 02:54:46;;;;;;;0.87;0.87;;;;;;;14.73;100.00;99572.03;5049469;28;20639;-62
2023/05/20 02:57:13;;;;;;;0.40;0.40;;;;;;;14.70;100.00;99563.50;5049455;28;20207;-61
2023/05/20 02:59:41;;;;;;;0.73;0.73;;;;;;;14.61;100.00;99568.22;5049488;28;20225;-61
2023/05/20 03:02:07;;;;;;;0.50;0.50;;;;;;;14.47;100.00;99555.09;5049155;28;20206;-61
2023/05/20 03:04:37;;;;;;;0.60;0.60;;;;;;;14.25;100.00;99559.47;5051681;28;20205;-62
2023/05/20 03:07:06;;;;;;;0.87;0.87;;;;;;;14.13;100.00;99564.22;5051661;28;20204;-61
2023/05/20 03:09:33;;;;;;;0.60;0.60;;;;;;;14.06;100.00;99564.53;5053168;28;20201;-62
2023/05/20 03:11:59;;;;;;;0.53;0.53;;;;;;;14.00;100.00;99570.81;5053160;28;20565;-61
2023/05/20 03:14:26;;;;;;;0.53;0.53;;;;;;;13.96;100.00;99576.13;5052963;28;20198;-62
2023/05/20 03:16:54;;;;;;;0.43;0.43;;;;;;;13.93;100.00;99578.84;5053552;28;20650;-61
2023/05/20 03:19:21;;;;;;;0.40;0.40;;;;;;;13.99;100.00;99588.91;5052804;28;20205;-61
2023/05/20 03:21:49;;;;;;;0.40;0.40;;;;;;;14.07;100.00;99602.31;5052558;28;20283;-61
2023/05/20 03:24:18;;;;;;;0.40;0.40;;;;;;;14.11;100.00;99609.03;5052238;28;20209;-61
2023/05/20 03:26:45;;;;;;;0.50;0.50;;;;;;;14.17;100.00;99613.94;5048946;28;20210;-62
2023/05/20 03:29:12;;;;;;;0.40;0.40;;;;;;;14.24;100.00;99612.78;5052453;28;20606;-62
2023/05/20 03:31:39;;;;;;;0.50;0.50;;;;;;;14.32;100.00;99615.88;5052191;28;20729;-61
2023/05/20 03:34:06;;;;;;;0.47;0.47;;;;;;;14.40;100.00;99616.44;5052034;28;20262;-60
2023/05/20 03:36:32;;;;;;;0.53;0.53;;;;;;;14.46;100.00;99616.16;5052916;28;20205;-61
2023/05/20 03:39:00;;;;;;;0.50;0.50;;;;;;;14.51;100.00;99624.53;5052630;28;20203;-60
2023/05/20 03:41:28;;;;;;;0.40;0.40;;;;;;;14.54;100.00;99639.88;5052263;28;20782;-61
2023/05/20 03:43:55;;;;;;;0.50;0.50;;;;;;;14.45;100.00;99644.59;5052270;28;20203;-61
2023/05/20 03:46:22;;;;;;;0.50;0.50;;;;;;;14.49;100.00;99649.56;5051937;28;20265;-61
2023/05/20 03:48:49;;;;;;;0.40;0.40;;;;;;;14.60;100.00;99649.13;5053119;28;20294;-62
2023/05/20 03:51:15;;;;;;;0.40;0.40;;;;;;;14.76;100.00;99645.00;5052856;28;20565;-61
2023/05/20 03:53:42;;;;;;;0.50;0.50;;;;;;;14.93;100.00;99651.97;5052355;28;20208;-62
2023/05/20 03:56:09;;;;;;;0.50;0.50;;;;;;;15.04;100.00;99648.03;5051067;28;20203;-61
2023/05/20 03:58:37;;;;;;;0.47;0.47;;;;;;;15.19;100.00;99643.91;5052090;28;20204;-61
2023/05/20 04:01:04;;;;;;;0.40;0.40;;;;;;;15.30;100.00;99635.69;5050245;28;20232;-61
2023/05/20 04:03:31;;;;;;;0.50;0.50;;;;;;;15.45;100.00;99629.81;5051936;28;20711;-61
2023/05/20 04:05:58;;;;;;;0.40;0.40;;;;;;;15.59;100.00;99628.31;5052232;28;20207;-62
2023/05/20 04:08:25;;;;;;;0.50;0.50;;;;;;;15.69;100.00;99624.38;5052061;28;20212;-61
2023/05/20 04:10:56;;;;;;;0.60;0.60;;;;;;;15.85;100.00;99636.56;5051978;28;20303;-61
2023/05/20 04:13:24;;;;;;;0.57;0.57;;;;;;;16.01;100.00;99634.91;5049023;28;20658;-61
2023/05/20 04:15:53;;;;;;;0.57;0.57;;;;;;;16.20;100.00;99646.88;5050538;28;20259;-61
2023/05/20 04:18:19;;;;;;;0.40;0.40;;;;;;;16.33;100.00;99647.09;5051747;28;20201;-62
2023/05/20 04:20:46;;;;;;;0.60;0.60;;;;;;;16.35;100.00;99640.09;5051803;28;20200;-61
2023/05/20 04:23:13;;;;;;;0.50;0.50;;;;;;;16.37;100.00;99642.63;5051606;28;20209;-61
2023/05/20 04:25:40;;;;;;;0.40;0.40;;;;;;;16.31;100.00;99641.19;5052488;28;20220;-61
2023/05/20 04:28:08;;;;;;;0.50;0.50;;;;;;;16.39;100.00;99651.13;5051533;28;20234;-62
2023/05/20 04:30:34;;;;;;;0.40;0.40;;;;;;;16.54;100.00;99647.78;5050691;28;20287;-62
2023/05/20 04:33:02;;;;;;;0.63;0.63;;;;;;;16.66;100.00;99644.63;5050889;28;20205;-61
2023/05/20 04:35:29;;;;;;;0.67;0.67;;;;;;;16.67;100.00;99639.34;5052337;28;20561;-62
2023/05/20 04:37:56;;;;;;;0.57;0.57;;;;;;;16.70;100.00;99638.38;5051376;28;20205;-61
2023/05/20 04:40:23;;;;;;;0.40;0.40;;;;;;;16.69;100.00;99640.13;5047701;28;20209;-61
2023/05/20 04:42:50;;;;;;;0.87;0.87;;;;;;;16.70;100.00;99639.19;5043808;28;20216;-62
2023/05/20 04:45:17;;;;;;;0.30;0.30;;;;;;;16.80;100.00;99635.22;5043697;28;20200;-62
2023/05/20 04:47:44;;;;;;;0.67;0.67;;;;;;;16.94;100.00;99633.66;5050839;28;20221;-62
2023/05/20 04:50:13;;;;;;;0.50;0.50;;;;;;;17.02;100.00;99632.34;5046225;28;20208;-61
2023/05/20 04:52:40;;;;;;;0.50;0.50;;;;;;;17.00;100.00;99634.16;5049990;28;20731;-61
2023/05/20 04:55:09;;;;;;;0.50;0.50;;;;;;;17.13;100.00;99636.94;5050621;28;20208;-61
2023/05/20 04:57:38;;;;;;;0.47;0.47;;;;;;;17.09;100.00;99638.84;5052376;28;20311;-62
2023/05/20 05:00:06;;;;;;;0.40;0.40;;;;;;;16.98;100.00;99640.34;5050333;28;20205;-62
2023/05/20 05:02:33;;;;;;;0.87;0.87;;;;;;;17.14;100.00;99643.81;5051530;28;20196;-62
2023/05/20 05:05:00;;;;;;;1.07;1.07;;;;;;;17.30;100.00;99637.72;5050375;28;20299;-62
2023/05/20 05:07:28;;;;;;;0.50;0.50;;;;;;;17.58;100.00;99647.47;5051900;28;20200;-62
2023/05/20 05:09:55;;;;;;;0.43;0.43;;;;;;;17.82;100.00;99645.28;5051242;28;20595;-63
2023/05/20 05:12:22;;;;;;;0.70;0.70;;;;;;;18.05;100.00;99652.59;5052050;28;20227;-62
2023/05/20 05:14:48;;;;;;;0.50;0.50;;;;;;;18.27;100.00;99652.22;5052370;28;20226;-62
2023/05/20 05:17:15;;;;;;;0.60;0.60;;;;;;;18.41;100.00;99641.88;5050811;28;20208;-62
2023/05/20 05:19:42;;;;;;;0.80;0.80;;;;;;;18.67;100.00;99655.97;5049961;28;20202;-62
2023/05/20 05:22:09;;;;;;;0.97;0.97;;;;;;;18.90;100.00;99652.00;5051650;28;20210;-62
2023/05/20 05:24:38;;;;;;;0.50;0.50;;;;;;;19.11;100.00;99650.69;5050622;28;20206;-62
2023/05/20 05:27:05;;;;;;;0.63;0.63;;;;;;;19.40;99.31;99662.75;5050582;28;20233;-62
2023/05/20 05:29:32;;;;;;;0.50;0.50;;;;;;;19.58;98.00;99661.59;5049806;28;20218;-63
2023/05/20 05:31:59;;;;;;;0.53;0.53;;;;;;;19.83;97.28;99661.75;5051512;28;20225;-62
2023/05/20 05:34:25;;;;;;;0.90;0.90;;;;;;;20.02;95.27;99650.97;5050195;28;20203;-63
2023/05/20 05:36:52;;;;;;;0.40;0.40;;;;;;;20.22;93.46;99652.28;5050669;28;20217;-62
2023/05/20 05:39:19;;;;;;;0.40;0.40;;;;;;;20.20;89.50;99657.56;5050575;28;20200;-63
2023/05/20 05:41:47;;;;;;;0.50;0.50;;;;;;;20.25;91.30;99658.13;5048060;28;20253;-62
2023/05/20 05:44:14;;;;;;;0.60;0.60;;;;;;;20.38;89.48;99666.00;5050186;28;20200;-62
2023/05/20 05:46:41;;;;;;;0.53;0.53;;;;;;;20.50;90.18;99662.56;5049937;28;20291;-62
2023/05/20 05:49:07;;;;;;;0.50;0.50;;;;;;;20.68;90.42;99655.31;5049403;28;20230;-62
2023/05/20 05:51:34;;;;;;;1.07;1.07;;;;;;;20.98;89.27;99668.84;5050976;28;20231;-63
2023/05/20 05:54:01;;;;;;;0.60;0.60;;;;;;;21.25;88.81;99653.94;5049932;28;20204;-62
2023/05/20 05:56:28;;;;;;;0.40;0.40;;;;;;;21.70;87.29;99662.06;5049002;28;20196;-62
2023/05/20 05:58:56;;;;;;;1.70;0.60;;;;;;;21.78;82.72;99662.31;5049921;28;20253;-64
2023/05/20 06:01:22;;;;;;;0.50;0.50;;;;;;;21.89;84.15;99657.22;5049439;28;20205;-62
2023/05/20 06:03:49;;;;;;;0.40;0.40;;;;;;;22.01;82.84;99650.25;5050470;28;20207;-64
2023/05/20 06:06:16;;;;;;;0.40;0.40;;;;;;;22.02;81.30;99652.75;5049472;28;20232;-62
2023/05/20 06:08:43;;;;;;;0.53;0.53;;;;;;;22.12;83.88;99653.75;5049818;28;20216;-64
2023/05/20 06:11:10;;;;;;;0.70;0.70;;;;;;;22.10;82.51;99649.59;5049342;28;20205;-63
2023/05/20 06:13:36;;;;;;;0.60;0.60;;;;;;;22.17;82.41;99656.00;5047216;28;20630;-62
2023/05/20 06:16:05;;;;;;;0.60;0.60;;;;;;;22.17;81.92;99656.00;5045386;28;20580;-61
2023/05/20 06:18:32;;;;;;;0.40;0.40;;;;;;;22.35;79.28;99654.66;5047999;28;20205;-62
2023/05/20 06:20:59;;;;;;;0.50;0.50;;;;;;;22.45;77.89;99653.03;5049080;28;20558;-62
2023/05/20 06:23:26;;;;;;;0.53;0.53;;;;;;;22.56;76.74;99657.44;5048981;28;20204;-62
2023/05/20 06:25:53;;;;;;;0.40;0.40;;;;;;;22.71;77.53;99661.56;5049631;28;20211;-62
2023/05/20 06:28:20;;;;;;;0.50;0.50;;;;;;;22.84;79.35;99657.88;5049110;28;20236;-61
2023/05/20 06:30:47;;;;;;;0.50;0.50;;;;;;;23.05;78.64;99654.56;5050740;28;20278;-62
2023/05/20 06:33:16;;;;;;;0.37;0.37;;;;;;;23.22;75.51;99657.56;5050554;28;20209;-63
2023/05/20 06:35:43;;;;;;;0.37;0.37;;;;;;;23.45;77.99;99647.94;5049579;28;20722;-63
2023/05/20 06:38:10;;;;;;;0.40;0.40;;;;;;;23.56;73.51;99655.75;5050436;28;20201;-70
2023/05/20 06:40:37;;;;;;;0.40;0.40;;;;;;;23.60;73.02;99651.09;5053827;28;20204;-62
2023/05/20 06:43:03;;;;;;;0.60;0.60;;;;;;;23.77;72.54;99654.03;5051143;28;20211;-62
2023/05/20 06:45:30;;;;;;;0.77;0.50;;;;;;;24.04;73.71;99646.56;5057852;28;20204;-62
2023/05/20 06:47:57;;;;;;;0.60;0.60;;;;;;;24.28;73.71;99649.00;5053823;28;20635;-62
2023/05/20 06:50:27;;;;;;;0.40;0.40;;;;;;;24.47;73.07;99640.41;5056747;28;20197;-63
2023/05/20 06:52:53;;;;;;;0.40;0.40;;;;;;;24.55;68.65;99645.88;5052450;28;20600;-65
2023/05/20 06:55:20;;;;;;;0.40;0.40;;;;;;;24.72;72.69;99640.00;5053716;28;20684;-65
2023/05/20 06:57:47;;;;;;;0.30;0.30;;;;;;;24.91;70.41;99645.38;5053339;28;20258;-62
2023/05/20 07:00:14;;;;;;;0.30;0.30;;;;;;;24.95;72.48;99638.94;5052992;28;20204;-62
2023/05/20 07:02:42;;;;;;;0.37;0.37;;;;;;;25.15;69.44;99649.50;5053929;28;20197;-62
2023/05/20 07:05:10;;;;;;;0.37;0.37;;;;;;;25.41;73.30;99638.41;5053308;28;20208;-63
2023/05/20 07:07:38;;;;;;;0.30;0.30;;;;;;;25.57;67.69;99635.28;5052188;28;20241;-62
2023/05/20 07:10:06;;;;;;;0.33;0.33;;;;;;;25.62;68.25;99621.75;5053102;28;20239;-62
2023/05/20 07:12:33;;;;;;;0.60;0.57;;;;;;;26.02;64.38;99636.44;5051312;28;20516;-64
2023/05/20 07:15:00;;;;;;;0.33;0.33;;;;;;;26.14;62.98;99636.31;5052183;28;20672;-64
2023/05/20 07:17:28;;;;;;;0.40;0.40;;;;;;;26.36;58.17;99647.41;5051298;28;20238;-65
2023/05/20 07:19:55;;;;;;;0.37;0.37;;;;;;;26.42;61.19;99638.09;5052111;28;20201;-65
2023/05/20 07:22:22;;;;;;;0.30;0.30;;;;;;;26.61;61.20;99653.84;5052677;28;20258;-65
2023/05/20 07:24:50;;;;;;;0.27;0.27;;;;;;;26.71;59.49;99659.09;5052837;28;20200;-65
2023/05/20 07:27:17;;;;;;;0.30;0.30;;;;;;;26.88;59.43;99651.28;5053041;28;20700;-65
2023/05/20 07:29:43;;;;;;;0.30;0.30;;;;;;;26.97;59.38;99663.63;5052688;28;20727;-65
2023/05/20 07:32:10;;;;;;;0.40;0.40;;;;;;;26.87;60.36;99660.19;5050240;28;20270;-64
2023/05/20 07:34:37;;;;;;;0.40;0.40;;;;;;;26.88;57.52;99656.56;5052585;28;20204;-64
2023/05/20 07:37:04;;;;;;;0.30;0.30;;;;;;;26.41;58.75;99660.09;5053068;28;20664;-64
2023/05/20 07:39:32;;;;;;;0.50;0.50;;;;;;;26.49;59.57;99660.25;5052739;28;20224;-65
2023/05/20 07:42:00;;;;;;;1.03;0.73;;;;;;;26.52;61.63;99660.78;5052808;28;20292;-64
2023/05/20 07:44:26;;;;;;;0.50;0.50;;;;;;;26.59;59.72;99668.94;5052365;28;20204;-64
2023/05/20 07:46:53;;;;;;;0.67;0.67;;;;;;;26.65;59.72;99660.50;5052511;28;20212;-65
2023/05/20 07:49:20;;;;;;;0.30;0.30;;;;;;;26.85;59.47;99664.75;5051777;28;20216;-65
2023/05/20 07:51:47;;;;;;;0.50;0.50;;;;;;;27.02;58.33;99657.91;5052668;28;20205;-65
2023/05/20 07:54:14;;;;;;;0.53;0.53;;;;;;;27.27;59.57;99648.53;5052136;28;20209;-66
2023/05/20 07:56:40;;;;;;;0.50;0.50;;;;;;;27.47;56.21;99652.72;5052435;28;20259;-65
2023/05/20 07:59:09;;;;;;;0.30;0.30;;;;;;;27.60;58.70;99658.47;5052859;28;20577;-65
2023/05/20 08:01:35;;;;;;;0.30;0.30;;;;;;;27.31;57.09;99655.13;5052695;28;20215;-66
2023/05/20 08:04:02;;;;;;;0.47;0.47;;;;;;;27.42;59.54;99652.31;5052809;28;20201;-65
2023/05/20 08:06:30;;;;;;;0.20;0.20;;;;;;;27.41;56.96;99648.03;5051558;28;20201;-65
2023/05/20 08:08:57;;;;;;;0.40;0.40;;;;;;;27.58;57.06;99639.38;5051840;28;20217;-65
2023/05/20 08:11:24;;;;;;;0.30;0.30;;;;;;;27.72;56.77;99641.50;5052246;28;20201;-66
2023/05/20 08:13:51;;;;;;;0.37;0.37;;;;;;;27.70;61.31;99637.34;5052597;28;20283;-65
2023/05/20 08:16:20;;;;;;;0.20;0.20;;;;;;;27.70;59.64;99621.53;5052255;28;20243;-66
2023/05/20 08:18:47;;;;;;;0.30;0.30;;;;;;;27.80;55.68;99652.09;5051973;28;20200;-64
2023/05/20 08:21:14;;;;;;;0.50;0.50;;;;;;;27.82;52.40;99647.50;5050647;28;20215;-65
2023/05/20 08:23:41;;;;;;;0.30;0.30;;;;;;;27.76;51.91;99648.09;5052289;28;20841;-65
2023/05/20 08:26:08;;;;;;;0.20;0.20;;;;;;;27.87;54.01;99644.44;5050915;28;20687;-65
2023/05/20 08:28:36;;;;;;;0.20;0.20;;;;;;;27.93;54.11;99639.41;5051995;28;20229;-65
2023/05/20 08:31:03;;;;;;;0.43;0.43;;;;;;;27.38;55.77;99643.88;5051855;28;20208;-65
2023/05/20 08:33:31;;;;;;;0.30;0.30;;;;;;;27.56;54.97;99636.06;5052014;28;20669;-65
2023/05/20 08:35:58;;;;;;;0.30;0.30;;;;;;;27.71;52.94;99639.84;5052497;28;20192;-66
2023/05/20 08:38:25;;;;;;;0.30;0.30;;;;;;;27.88;52.37;99635.56;5052299;28;20669;-66
2023/05/20 08:40:53;;;;;;;0.70;0.70;;;;;;;27.92;52.57;99632.47;5051828;28;20251;-65
2023/05/20 08:43:20;;;;;;;0.50;0.50;;;;;;;27.31;51.30;99636.72;5051786;28;20200;-65
2023/05/20 08:45:47;;;;;;;0.40;0.40;;;;;;;27.04;50.61;99648.88;5052013;28;20197;-65
2023/05/20 08:48:16;;;;;;;0.30;0.30;;;;;;;26.87;51.63;99644.41;5051797;28;20589;-64
2023/05/20 08:50:45;;;;;;;0.40;0.40;;;;;;;27.03;52.62;99647.25;5051642;28;20270;-65
2023/05/20 08:53:12;;;;;;;0.40;0.40;;;;;;;27.12;51.39;99642.91;5051498;28;20208;-65
2023/05/20 08:55:44;;;;;;;0.30;0.30;;;;;;;27.30;52.59;99635.06;5051550;28;20197;-65
2023/05/20 08:58:11;;;;;;;0.40;0.40;;;;;;;27.01;50.60;99643.91;5051277;28;20213;-65
2023/05/20 09:00:38;;;;;;;0.30;0.30;;;;;;;27.02;52.61;99635.06;5050536;28;20669;-66
2023/05/20 09:03:05;;;;;;;0.30;0.30;;;;;;;26.83;50.18;99636.91;5051474;28;20200;-64
2023/05/20 09:05:31;;;;;;;0.43;0.43;;;;;;;26.63;52.25;99636.94;5050987;28;20235;-64
2023/05/20 09:08:07;;;;;;;0.40;0.40;;;;;;;26.10;54.01;99630.50;5051958;28;20834;-64
2023/05/20 09:10:34;;;;;;;0.20;0.20;;;;;;;25.66;54.10;99629.22;5051296;28;20221;-65
2023/05/20 09:13:02;;;;;;;0.67;0.67;;;;;;;25.59;54.59;99630.72;5051671;28;20707;-65
2023/05/20 09:15:29;;;;;;;0.30;0.30;;;;;;;25.32;55.28;99620.00;5051443;28;20193;-64
2023/05/20 09:17:56;;;;;;;0.33;0.33;;;;;;;25.21;58.39;99623.56;5051555;28;20201;-65
2023/05/20 09:20:24;;;;;;;0.30;0.30;;;;;;;25.12;56.33;99628.78;5051461;28;20196;-65
2023/05/20 09:22:52;;;;;;;0.43;0.43;;;;;;;25.02;56.22;99624.31;5047247;28;20295;-64
2023/05/20 09:25:22;;;;;;;0.47;0.47;;;;;;;24.88;55.13;99616.81;5051347;28;20279;-65
2023/05/20 09:27:50;;;;;;;0.30;0.30;;;;;;;24.84;58.79;99615.44;5050978;28;20217;-64
2023/05/20 09:30:19;;;;;;;0.40;0.40;;;;;;;24.87;60.56;99615.16;5051402;28;20216;-65
2023/05/20 09:32:45;;;;;;;0.50;0.43;;;;;;;24.93;57.37;99614.63;5051092;28;20243;-65
2023/05/20 09:35:14;;;;;;;0.30;0.30;;;;;;;24.98;56.62;99628.16;5051484;28;20204;-64
2023/05/20 09:37:43;;;;;;;0.33;0.33;;;;;;;25.06;56.04;99625.72;5051101;28;20215;-63
2023/05/20 09:40:14;;;;;;;0.30;0.30;;;;;;;25.13;54.50;99614.69;5051043;28;20236;-65
2023/05/20 09:42:44;;;;;;;0.33;0.33;;;;;;;25.37;53.95;99618.63;5050628;28;20277;-66
2023/05/20 09:45:10;;;;;;;0.30;0.30;;;;;;;25.52;53.80;99616.50;5051405;28;20201;-64
2023/05/20 09:47:39;;;;;;;0.30;0.30;;;;;;;25.53;55.88;99602.38;5050598;28;20201;-65
2023/05/20 09:50:08;;;;;;;0.40;0.40;;;;;;;25.61;56.58;99589.41;5050274;28;20224;-65
2023/05/20 09:52:36;;;;;;;0.30;0.30;;;;;;;25.60;55.22;99587.75;5050241;28;20201;-65
2023/05/20 09:55:04;;;;;;;0.30;0.30;;;;;;;25.56;54.49;99602.13;5048940;28;20231;-64
2023/05/20 09:57:33;;;;;;;0.43;0.43;;;;;;;25.31;57.93;99597.34;5050537;28;20232;-65
2023/05/20 10:00:02;;;;;;;0.50;0.50;;;;;;;25.00;59.25;99594.78;5050144;28;20243;-65
2023/05/20 10:02:29;;;;;;;0.30;0.30;;;;;;;24.64;66.15;99597.91;5050044;28;20209;-64
2023/05/20 10:04:59;;;;;;;0.40;0.40;;;;;;;24.21;73.45;99610.31;5049631;28;20296;-65
2023/05/20 10:07:52;;;;;;;0.63;0.63;;;;;;;23.95;72.41;99600.16;5050305;28;20193;-65
2023/05/20 10:10:29;;;;;;;0.50;0.50;;;;;;;23.71;76.10;99589.09;5049311;28;20221;-66
2023/05/20 10:13:08;;;;;;;0.70;0.70;;;;;;;23.69;77.15;99593.59;5049918;28;20200;-65
2023/05/20 10:15:48;;;;;;;0.53;0.53;;;;;;;23.67;79.10;99592.06;5046969;28;20212;-65
2023/05/20 10:18:26;;;;;;;0.40;0.40;;;;;;;23.53;83.71;99603.66;5049798;28;20201;-65
2023/05/20 10:20:53;;;;;;;0.70;0.70;;;;;;;23.26;82.78;99588.34;5050356;28;20207;-65
2023/05/20 10:23:24;;;;;;;0.23;0.23;;;;;;;23.29;87.04;99595.94;5049587;28;20213;-65
2023/05/20 10:25:52;;;;;;;0.60;0.60;;;;;;;23.25;78.90;99594.53;5049993;28;20204;-65
2023/05/20 10:28:30;;;;;;;0.40;0.40;;;;;;;23.43;81.56;99587.00;5049817;28;20793;-66
2023/05/20 10:30:59;;;;;;;0.40;0.40;;;;;;;23.58;76.68;99591.03;5050070;28;20401;-65
2023/05/20 10:33:27;;;;;;;0.90;0.90;;;;;;;23.67;80.61;99586.84;5049659;28;20278;-65
2023/05/20 10:35:54;;;;;;;4.60;1.57;;;;;;;23.85;80.50;99583.53;5050153;28;20288;-65
2023/05/20 10:38:21;;;;;;;1.03;1.03;;;;;;;23.84;78.16;99584.53;5050171;28;20703;-65
2023/05/20 10:40:48;;;;;;;0.70;0.70;;;;;;;23.90;76.17;99576.16;5049690;28;20193;-64
2023/05/20 10:43:17;;;;;;;1.43;1.17;;;;;;;23.94;66.27;99585.41;5049537;28;20212;-63
2023/05/20 10:45:49;;;;;;;1.03;1.03;;;;;;;24.07;67.39;99582.63;5049782;28;20283;-64
2023/05/20 10:48:28;;;;;;;0.67;0.67;;;;;;;23.97;65.04;99577.28;5049203;28;20720;-64
2023/05/20 10:50:56;;;;;;;0.37;0.37;;;;;;;23.87;65.21;99586.88;5048552;28;20868;-61
2023/05/20 10:53:24;;;;;;;0.77;0.77;;;;;;;23.88;63.67;99585.91;5048706;28;20334;-62
2023/05/20 10:55:53;;;;;;;0.37;0.37;;;;;;;23.98;66.86;99581.59;5049549;28;20201;-63
2023/05/20 10:58:22;;;;;;;0.50;0.50;;;;;;;23.77;62.13;99588.59;5049228;28;20212;-62
2023/05/20 11:00:49;;;;;;;0.30;0.30;;;;;;;23.57;64.25;99578.91;5047570;28;20204;-62
2023/05/20 11:03:17;;;;;;;0.30;0.30;;;;;;;23.55;65.95;99583.44;5047904;28;20627;-63
2023/05/20 11:05:47;;;;;;;0.40;0.40;;;;;;;23.51;65.67;99580.22;5048872;28;20217;-63
2023/05/20 11:08:14;;;;;;;0.60;0.60;;;;;;;23.59;64.44;99581.41;5048450;28;20686;-62
2023/05/20 11:10:44;;;;;;;0.50;0.50;;;;;;;23.53;63.87;99573.06;5048185;28;20224;-63
2023/05/20 11:13:12;;;;;;;0.83;0.77;;;;;;;23.69;64.09;99580.50;5049041;28;20197;-62
2023/05/20 11:15:40;;;;;;;0.53;0.53;;;;;;;23.49;63.52;99582.13;5048103;28;20204;-62
2023/05/20 11:18:06;;;;;;;0.60;0.60;;;;;;;23.56;65.50;99582.47;5048914;28;20220;-63
2023/05/20 11:20:34;;;;;;;0.53;0.53;;;;;;;23.67;65.48;99579.81;5049343;28;20205;-63
2023/05/20 11:23:03;;;;;;;0.50;0.50;;;;;;;23.53;63.41;99585.31;5048668;28;20208;-63
2023/05/20 11:25:30;;;;;;;0.80;0.80;;;;;;;23.52;65.25;99576.63;5049205;28;20300;-63
2023/05/20 11:27:56;;;;;;;0.33;0.33;;;;;;;23.62;66.78;99565.44;5051774;28;20233;-63
2023/05/20 11:30:24;;;;;;;0.20;0.20;;;;;;;23.70;64.93;99574.34;5051361;28;20217;-63